Aérodrome :
LOGIN :

S'inscrire | Disclaimer

   EN    FR    IT 

 










Légende :    VFR   VFR Marginal   IFR   IFR Intensif   IFR Très Intensif
Visi : 
Plafond : 
>= 8 km
>= 3000ft
5 à 8 km
1000 à 3000 ft
1500m à 5 km
500 à 1000 ft
800 à 1500m
200 à 500 ft
< 800m
< 200 ft
Symboles :   Orages  Brouillard  Fortes neiges  Fortes précipitations  Vent > 20 kt
SIGMETs :   Divers  Orages  Givrage  Turbulence  Onde Orograph.  Cendres Volcan.







- Altitude de l'aérodrome : 124 ft
- Code IATA : AVN
- Voir les cartes d'approche


LFMV - Avignon Caumont

DERNIER METAR :
  • 170930Z AUTO 34020KT CAVOK 29/15 Q1014 TEMPO 35020G30KT

METARs EXPIRÉS :
  • 170900Z AUTO 34018KT CAVOK 28/15 Q1014 TEMPO 35020G30KT
  • 170830Z AUTO 33019KT CAVOK 27/14 Q1014 TEMPO 35020G30KT
  • 170800Z AUTO 33019G30KT CAVOK 27/15 Q1014 NOSIG
  • 170730Z AUTO 34015KT 310V010 CAVOK 26/15 Q1015 TEMPO 35017G27KT
  • 170700Z AUTO 34013KT CAVOK 25/15 Q1014 TEMPO 35017G27KT

TAF TAF LFMV
Valide du 17 à 09h jusqu'au 18 à 09h UTC


170800Z 1709/1809 35015KT CAVOK
TEMPO 1709/1718 35020G30KT
ATIS : +33 4 90 84 32 84
Pas de NOTAMs connus pour ce terrain.



MET'MAP, la Météo Aéronautique d'un coup d'oeil ! - Copyright ORBIFLY Décembre 2007 - Disclaimer

ORBIFLY MET'MAP TEAM :

Programmation & Développement : Alexandra Zaïnal
Conception & Développement : Baudouin d'Aumeries
Co-Programmation & Développement : Marc-Olivier Méhu
Soutien technique & logistique : Manuel Goepfert

Contact : metmap@orbifly.com




SOURCES & CREDITS :

   NOAA